Impacts TAF Board INFO
FOR SITUATIONAL AWARENESS. NOT TO BE USED FOR FLIGHT PLANNING PURPOSES.
IDs:

KPDX - Portland Intl Arpt, OR, US

Issued at 1737 UTC 20 Jul 2018
Updated at 2033 UTC 20 Jul 2018
Potential Impact None Slight Moderate High
Time1953Z 20/21Z 20/22Z 20/23Z 21/00Z 21/01Z 21/02Z 21/03Z 21/04Z 21/05Z 21/06Z 21/07Z 21/08Z 21/09Z>>
Type OBS PRVL PRVL PRVL PRVL PRVL PRVL PRVL PRVL PRVL PRVL PRVL PRVL PRVL
VIS 10 >6 >6 >6 >6 >6 >6 >6 >6 >6 >6 >6 >6 >6
CIG -- -- -- -- -- -- -- -- -- -- -- -- -- --
Cover FEW SCT SCT SCT SCT SCT SCT SCT SCT SCT SKC SKC SKC SKC
FltCat VFR VFR VFR VFR VFR VFR VFR VFR VFR VFR VFR VFR VFR VFR
WX -- -- -- -- -- -- -- -- -- -- -- -- -- --
WDir 330 320 320 320 320 320 320 320 320 320 310 310 310 310
WSpd 7 12 12 12 12 12 12 12 12 12 7 7 7 7
WGst 15 21 21 21 21 21 21 21 21 21 -- -- -- --

Raw TAF
KPDX 201737Z 2018/2118 33004KT P6SM BKN035
  FM202000 32012G21KT P6SM SCT040
  FM210600 31007KT P6SM SKC
  FM211200 33003KT P6SM SCT025 BKN050


Raw METAR
KPDX 201953Z 33007G15KT 310V010 10SM FEW038 22/08 A3016 RMK AO2 SLP214 T02170083
KPDX 201853Z 00000KT 10SM SCT038 19/09 A3019 RMK AO2 SLP221 T01940089
KPDX 201753Z VRB03KT 10SM SCT036 18/08 A3020 RMK AO2 SLP225 T01780083 10183 20106 58007

METAR Board
Radar Display
Forecast Discussion

FOR SITUATIONAL AWARENESS. NOT TO BE USED FOR FLIGHT PLANNING PURPOSES.